Time;durP1;ratioP1;P1;durP2;ratioP2;P2;SDS_P1;SDS_P2;PMS_P1;PMS_P2;Temp;Humidity;BMP_temperature;BMP_pressure;BME280_temperature;BME280_humidity;BME280_pressure;Samples;Min_cycle;Max_cycle;Signal;HPM_P1;HPM_P2
2021/08/06 00:01:32;;;;;;;1.70;1.60;;;22.90;99.90;;;22.90;54.87;99983.84;4981369;28;99645;-54
2021/08/06 00:03:59;;;;;;;1.27;1.17;;;22.90;99.90;;;22.94;54.68;99985.22;4971321;28;97733;-48
2021/08/06 00:06:27;;;;;;;1.53;1.43;;;22.90;99.90;;;22.94;54.71;99985.22;4982677;28;96845;-50
2021/08/06 00:08:56;;;;;;;2.43;1.57;;;22.90;99.90;;;22.97;54.64;99985.78;4951627;28;98266;-47
2021/08/06 00:11:30;;;;;;;1.50;1.40;;;22.90;99.90;;;22.97;54.67;99984.94;4970904;28;97574;-49
2021/08/06 00:13:57;;;;;;;1.50;1.40;;;22.90;99.90;;;22.96;54.71;99976.00;4969433;28;97198;-48
2021/08/06 00:16:23;;;;;;;3.43;2.73;;;22.90;99.90;;;22.96;54.72;99977.84;4982769;28;99182;-46
2021/08/06 00:18:50;;;;;;;1.73;1.63;;;22.90;99.90;;;22.97;54.69;99982.25;4965111;28;96880;-45
2021/08/06 00:21:17;;;;;;;1.40;1.30;;;22.90;99.90;;;22.96;54.78;99973.31;4979277;28;102703;-45
2021/08/06 00:23:44;;;;;;;1.60;1.47;;;22.90;99.90;;;22.95;54.74;99976.16;4970882;28;97468;-45
2021/08/06 00:26:14;;;;;;;1.50;1.40;;;22.90;99.90;;;22.95;54.59;99970.78;4962909;28;96631;-45
2021/08/06 00:28:41;;;;;;;1.63;1.53;;;22.90;99.90;;;22.94;54.58;99974.47;4950649;28;98400;-45
2021/08/06 00:31:08;;;;;;;2.33;2.13;;;22.90;99.90;;;22.94;54.70;99975.31;4976871;28;98364;-45
2021/08/06 00:33:34;;;;;;;1.43;1.33;;;22.90;99.90;;;22.94;54.74;99979.84;4949922;28;96843;-45
2021/08/06 00:36:00;;;;;;;2.10;1.90;;;22.90;99.90;;;22.94;54.71;99971.78;4973910;28;97310;-45
2021/08/06 00:38:26;;;;;;;1.60;1.50;;;22.80;99.90;;;22.93;54.85;99972.78;4953196;28;98664;-46
2021/08/06 00:40:52;;;;;;;1.60;1.50;;;22.80;99.90;;;22.92;54.93;99971.09;4963019;28;97183;-46
2021/08/06 00:43:19;;;;;;;2.47;2.27;;;22.80;99.90;;;22.92;54.97;99965.72;4971380;28;97385;-46
2021/08/06 00:45:45;;;;;;;1.53;1.43;;;22.90;99.90;;;22.94;54.83;99969.09;4952414;28;97166;-47
2021/08/06 00:48:12;;;;;;;2.40;1.60;;;22.90;99.90;;;22.92;54.79;99963.03;4953535;28;97345;-44
2021/08/06 00:50:38;;;;;;;1.70;1.60;;;22.90;99.90;;;22.93;54.76;99962.03;4962451;28;99066;-49
2021/08/06 00:53:05;;;;;;;1.60;1.50;;;22.90;99.90;;;22.93;54.80;99962.88;4954152;28;96975;-46
2021/08/06 00:55:31;;;;;;;1.93;1.80;;;22.90;99.90;;;22.93;54.80;99964.72;4966356;28;99535;-51
2021/08/06 00:57:57;;;;;;;1.70;1.60;;;22.90;99.90;;;22.93;54.85;99956.66;4954192;28;107309;-45
2021/08/06 01:00:23;;;;;;;1.60;1.50;;;22.90;99.90;;;22.92;54.91;99961.19;4973603;28;100053;-49
2021/08/06 01:03:16;;;;;;;1.30;1.20;;;22.90;99.90;;;22.92;54.83;99963.03;4949463;28;113033;-44
2021/08/06 01:05:48;;;;;;;2.13;1.80;;;22.90;99.90;;;22.89;54.98;99961.50;4975500;28;97746;-48
2021/08/06 01:08:18;;;;;;;1.53;1.43;;;22.80;99.90;;;22.89;55.07;99955.28;4938271;28;97500;-46
2021/08/06 01:10:50;;;;;;;1.43;1.33;;;22.90;99.90;;;22.90;54.98;99951.59;4976978;28;97248;-45
2021/08/06 01:13:31;;;;;;;2.20;1.43;;;22.90;99.90;;;22.90;54.90;99946.22;4967012;28;97137;-50
2021/08/06 01:16:02;;;;;;;1.60;1.50;;;22.90;99.90;;;22.88;54.97;99945.50;4956324;28;97056;-46
2021/08/06 01:18:32;;;;;;;1.40;1.30;;;22.80;99.90;;;22.87;55.10;99946.50;4970119;28;100636;-45
2021/08/06 01:21:09;;;;;;;1.63;1.53;;;22.90;99.90;;;22.90;55.09;99951.59;4970515;28;100086;-49
2021/08/06 01:23:38;;;;;;;2.00;1.90;;;22.90;99.90;;;22.88;55.03;99948.22;4946387;28;97081;-45
2021/08/06 01:26:24;;;;;;;1.87;1.70;;;22.90;99.90;;;22.90;54.98;99946.22;4957648;28;97192;-46
2021/08/06 01:28:50;;;;;;;1.50;1.40;;;22.80;99.90;;;22.89;55.05;99944.50;4967241;28;97180;-52
2021/08/06 01:31:29;;;;;;;2.30;1.43;;;22.80;99.90;;;22.91;54.90;99937.16;4961355;28;97408;-51
2021/08/06 01:33:56;;;;;;;1.40;1.30;;;22.80;99.90;;;22.85;55.20;99928.66;4950602;28;97826;-47
2021/08/06 01:36:22;;;;;;;1.50;1.40;;;22.80;99.90;;;22.87;55.11;99925.84;4955143;28;97519;-50
2021/08/06 01:38:49;;;;;;;2.03;1.83;;;22.80;99.90;;;22.87;54.99;99933.06;4950923;28;99737;-51
2021/08/06 01:41:34;;;;;;;1.67;1.57;;;22.80;99.90;;;22.92;54.84;99936.16;4972545;28;99498;-52
2021/08/06 01:44:34;;;;;;;1.50;1.40;;;22.80;99.90;;;22.91;55.00;99937.16;4950905;28;99685;-51
2021/08/06 01:47:09;;;;;;;1.97;1.60;;;22.80;99.90;;;22.88;55.21;99937.44;4964191;28;97328;-49
2021/08/06 01:49:42;;;;;;;2.10;1.80;;;22.80;99.90;;;22.88;54.97;99926.69;4967437;28;97569;-51
2021/08/06 01:52:22;;;;;;;3.37;1.90;;;22.70;99.90;;;22.90;55.02;99930.91;4939862;28;98776;-48
2021/08/06 01:54:50;;;;;;;1.97;1.70;;;22.80;99.90;;;22.87;55.09;99919.63;4953793;28;96975;-52
2021/08/06 01:57:16;;;;;;;1.60;1.50;;;22.80;99.90;;;22.88;55.20;99927.53;4974031;28;97114;-50
2021/08/06 01:59:43;;;;;;;1.40;1.30;;;22.80;99.90;;;22.85;55.30;99923.28;4955281;28;117849;-51
2021/08/06 02:02:10;;;;;;;2.27;1.97;;;22.80;99.90;;;22.86;55.07;99913.41;4956813;28;100129;-49
2021/08/06 02:04:38;;;;;;;1.80;1.60;;;22.70;99.90;;;22.83;55.05;99908.31;4974561;28;96745;-50
2021/08/06 02:07:04;;;;;;;1.50;1.40;;;22.70;99.90;;;22.84;55.15;99910.84;4952001;28;96824;-53
2021/08/06 02:09:30;;;;;;;2.20;1.83;;;22.70;99.90;;;22.83;55.19;99908.31;4970868;28;97513;-53
2021/08/06 02:11:56;;;;;;;1.80;1.70;;;22.70;99.90;;;22.81;55.19;99916.50;4948426;28;111920;-47
2021/08/06 02:14:22;;;;;;;1.60;1.50;;;22.70;99.90;;;22.82;55.16;99910.16;4972847;28;96827;-50
2021/08/06 02:16:51;;;;;;;1.40;1.30;;;22.70;99.90;;;22.82;55.16;99915.53;4971230;28;96839;-47
2021/08/06 02:19:22;;;;;;;1.67;1.57;;;22.70;99.90;;;22.83;55.22;99919.06;4956033;28;99928;-46
2021/08/06 02:21:52;;;;;;;2.13;1.93;;;22.70;99.90;;;22.79;55.33;99918.50;4968884;28;98613;-49
2021/08/06 02:24:18;;;;;;;1.60;1.50;;;22.70;99.90;;;22.78;55.25;99911.44;4954805;28;96797;-49
2021/08/06 02:26:46;;;;;;;1.30;1.20;;;22.60;99.90;;;22.78;55.42;99914.13;4951063;28;97208;-50
2021/08/06 02:29:15;;;;;;;1.70;1.60;;;22.70;99.90;;;22.80;55.22;99913.97;4967784;28;102388;-51
2021/08/06 02:31:43;;;;;;;3.97;2.37;;;22.70;99.90;;;22.81;55.40;99911.13;4965630;28;99537;-53
2021/08/06 02:34:11;;;;;;;2.00;1.80;;;22.70;99.90;;;22.80;55.43;99911.28;4957936;28;97664;-47
2021/08/06 02:36:37;;;;;;;1.60;1.50;;;22.70;99.90;;;22.79;55.29;99905.06;4947904;28;97329;-53
2021/08/06 02:39:11;;;;;;;1.50;1.30;;;22.70;99.90;;;22.81;55.22;99911.13;4955604;28;103053;-48
2021/08/06 02:41:37;;;;;;;1.70;1.60;;;22.70;99.90;;;22.76;55.35;99908.03;4963900;28;99612;-51
2021/08/06 02:44:03;;;;;;;2.17;1.97;;;22.70;99.90;;;22.76;55.34;99907.19;4972195;28;97007;-51
2021/08/06 02:46:29;;;;;;;4.10;2.20;;;22.70;99.90;;;22.73;56.17;99918.25;4956422;28;96945;-48
2021/08/06 02:48:55;;;;;;;2.37;2.17;;;22.70;99.90;;;22.74;56.49;99920.78;4949944;28;97151;-48
2021/08/06 02:51:21;;;;;;;2.37;2.10;;;22.60;99.90;;;22.73;55.97;99918.25;4970859;28;117887;-52
2021/08/06 02:53:47;;;;;;;1.77;1.50;;;22.60;99.90;;;22.71;55.58;99917.53;4967031;28;98837;-49
2021/08/06 02:56:12;;;;;;;1.70;1.60;;;22.50;99.90;;;22.70;55.60;99914.00;4955558;28;96979;-52
2021/08/06 02:58:39;;;;;;;1.53;1.40;;;22.50;99.90;;;22.71;55.67;99915.72;4966301;28;100870;-52
2021/08/06 03:01:05;;;;;;;1.40;1.30;;;22.60;99.90;;;22.73;55.60;99912.88;4971562;28;97674;-52
2021/08/06 03:03:31;;;;;;;4.13;1.63;;;22.60;99.90;;;22.73;55.64;99912.88;4967677;28;97198;-49
2021/08/06 03:05:56;;;;;;;1.70;1.53;;;22.60;99.90;;;22.71;55.58;99910.34;4955453;28;98256;-50
2021/08/06 03:08:22;;;;;;;1.60;1.50;;;22.60;99.90;;;22.73;55.60;99900.28;4952246;28;108397;-50
2021/08/06 03:10:48;;;;;;;1.50;1.40;;;22.60;99.90;;;22.75;55.55;99900.13;4953441;28;99427;-49
2021/08/06 03:13:14;;;;;;;1.40;1.30;;;22.60;99.90;;;22.75;55.51;99895.59;4967494;28;97350;-53
2021/08/06 03:15:39;;;;;;;1.73;1.43;;;22.70;99.90;;;22.74;55.50;99887.69;4952428;28;97349;-53
2021/08/06 03:18:05;;;;;;;1.70;1.60;;;22.70;99.90;;;22.76;55.42;99891.91;4971216;28;97340;-51
2021/08/06 03:20:32;;;;;;;2.10;1.90;;;22.70;99.90;;;22.79;55.42;99891.59;4969198;28;100386;-52
2021/08/06 03:22:57;;;;;;;1.73;1.63;;;22.70;99.90;;;22.79;55.37;99891.59;4964362;28;98889;-50
2021/08/06 03:25:23;;;;;;;1.70;1.60;;;22.70;99.90;;;22.82;55.35;99890.44;4954846;28;97091;-48
2021/08/06 03:27:49;;;;;;;1.30;1.20;;;22.70;99.90;;;22.79;55.47;99880.84;4965798;28;105756;-47
2021/08/06 03:30:16;;;;;;;1.80;1.70;;;22.70;99.90;;;22.80;55.41;99877.16;4957473;28;97833;-51
2021/08/06 03:32:42;;;;;;;1.63;1.53;;;22.70;99.90;;;22.79;55.46;99870.09;4944009;28;96892;-54
2021/08/06 03:35:09;;;;;;;1.40;1.30;;;22.70;99.90;;;22.82;55.42;99877.00;4960236;28;97344;-51
2021/08/06 03:37:35;;;;;;;1.13;1.07;;;22.70;99.90;;;22.82;55.48;99877.00;4947042;28;98200;-53
2021/08/06 03:40:01;;;;;;;1.27;1.23;;;22.70;99.90;;;22.78;55.56;99871.09;4973969;28;100542;-48
2021/08/06 03:42:27;;;;;;;1.93;1.83;;;22.70;99.90;;;22.78;55.61;99868.41;4952309;28;97933;-53
2021/08/06 03:44:53;;;;;;;1.43;1.30;;;22.70;99.90;;;22.79;55.57;99864.72;4971510;28;96861;-52
2021/08/06 03:47:19;;;;;;;1.57;1.47;;;22.70;99.90;;;22.79;55.54;99870.09;4967494;28;99790;-52
2021/08/06 03:49:45;;;;;;;1.60;1.50;;;22.80;99.90;;;22.80;55.58;99854.81;4951801;28;99586;-52
2021/08/06 03:52:11;;;;;;;1.30;1.20;;;22.70;99.90;;;22.79;55.40;99853.97;4950795;28;97619;-48
2021/08/06 03:54:37;;;;;;;2.03;1.70;;;22.80;99.90;;;22.76;55.64;99865.03;4953108;28;97438;-51
2021/08/06 03:57:04;;;;;;;1.67;1.57;;;22.70;99.90;;;22.77;55.48;99860.50;4966287;28;97915;-51
2021/08/06 03:59:30;;;;;;;1.60;1.47;;;22.70;99.90;;;22.77;55.55;99865.88;4967324;28;100048;-53
2021/08/06 04:01:56;;;;;;;1.70;1.47;;;22.70;99.90;;;22.75;55.57;99862.50;4945484;28;96978;-52
2021/08/06 04:04:22;;;;;;;1.80;1.70;;;22.70;99.90;;;22.79;55.55;99870.09;4963419;28;97671;-53
2021/08/06 04:06:48;;;;;;;1.57;1.47;;;22.70;99.90;;;22.79;55.61;99867.41;4948983;28;97523;-48
2021/08/06 04:09:14;;;;;;;1.60;1.50;;;22.70;99.90;;;22.79;55.53;99864.72;4978651;28;98025;-52
2021/08/06 04:11:40;;;;;;;1.90;1.63;;;22.70;99.90;;;22.77;55.70;99871.25;4968369;28;97407;-50
2021/08/06 04:14:06;;;;;;;1.47;1.37;;;22.70;99.90;;;22.74;55.73;99869.72;4957026;28;96847;-48
2021/08/06 04:16:31;;;;;;;1.90;1.80;;;22.70;99.90;;;22.77;55.67;99864.03;4945081;28;97623;-52
2021/08/06 04:18:57;;;;;;;1.53;1.43;;;22.70;99.90;;;22.76;55.75;99870.41;4956316;28;99404;-54
2021/08/06 04:21:23;;;;;;;1.63;1.53;;;22.70;99.90;;;22.74;55.84;99856.28;4956817;28;98646;-52
2021/08/06 04:23:49;;;;;;;1.87;1.77;;;22.70;99.90;;;22.77;55.97;99855.97;4972997;28;98467;-51
2021/08/06 04:26:15;;;;;;;1.67;1.57;;;22.70;99.90;;;22.77;55.70;99849.75;4949181;28;97573;-47
2021/08/06 04:28:41;;;;;;;1.63;1.53;;;22.70;99.90;;;22.78;55.57;99852.28;4959067;28;97350;-51
2021/08/06 04:31:07;;;;;;;1.80;1.70;;;22.70;99.90;;;22.78;55.64;99852.28;4971795;28;102685;-51
2021/08/06 04:33:33;;;;;;;1.70;1.60;;;22.70;99.90;;;22.79;55.61;99863.88;4968861;28;102404;-52
2021/08/06 04:35:59;;;;;;;2.43;2.20;;;22.70;99.90;;;22.81;55.94;99854.66;4972296;28;101757;-53
2021/08/06 04:38:25;;;;;;;1.60;1.50;;;22.70;99.90;;;22.82;55.58;99861.75;4970192;28;97046;-52
2021/08/06 04:40:51;;;;;;;2.37;1.80;;;22.70;99.90;;;22.82;55.64;99858.19;4954356;28;97614;-50
2021/08/06 04:43:20;;;;;;;1.80;1.70;;;22.70;99.90;;;22.80;55.85;99865.56;4969701;28;96993;-52
2021/08/06 04:45:47;;;;;;;2.00;1.80;;;22.70;99.90;;;22.78;55.73;99868.41;4943273;28;100189;-50
2021/08/06 04:48:15;;;;;;;1.97;1.77;;;22.70;99.90;;;22.79;55.69;99863.88;4968733;28;98016;-47
2021/08/06 04:50:41;;;;;;;1.80;1.70;;;22.70;99.90;;;22.81;55.61;99868.09;4965764;28;97063;-49
2021/08/06 04:53:07;;;;;;;2.07;1.90;;;22.70;99.90;;;22.81;55.64;99868.09;4973846;28;97447;-50
2021/08/06 04:55:33;;;;;;;2.43;1.57;;;22.70;99.90;;;22.78;55.83;99865.72;4953464;28;99525;-52
2021/08/06 04:57:59;;;;;;;2.50;2.17;;;22.70;99.90;;;22.76;55.86;99867.72;4969692;28;102984;-51
2021/08/06 05:00:25;;;;;;;1.77;1.67;;;22.70;99.90;;;22.75;55.82;99868.72;4971280;28;97929;-47
2021/08/06 05:02:50;;;;;;;1.83;1.73;;;22.70;99.90;;;22.74;55.88;99861.66;4967834;28;106626;-48
2021/08/06 05:05:16;;;;;;;1.60;1.50;;;22.70;99.90;;;22.75;56.03;99868.72;4956874;28;97268;-51
2021/08/06 05:07:50;;;;;;;1.90;1.80;;;22.70;99.90;;;22.75;55.81;99863.34;4973528;28;102033;-52
2021/08/06 05:10:18;;;;;;;1.67;1.57;;;22.70;99.90;;;22.76;55.88;99859.66;4952241;28;98114;-50
2021/08/06 05:12:44;;;;;;;2.03;1.70;;;22.70;99.90;;;22.77;55.76;99861.34;4936597;28;97662;-51
2021/08/06 05:15:10;;;;;;;2.07;1.60;;;22.70;99.90;;;22.77;55.68;99861.34;4943134;28;100068;-46
2021/08/06 05:17:36;;;;;;;1.93;1.83;;;22.70;99.90;;;22.75;56.07;99857.97;4942639;28;100170;-50
2021/08/06 05:20:04;;;;;;;2.07;1.53;;;22.70;99.90;;;22.77;55.85;99861.34;4945026;28;99746;-49
2021/08/06 05:22:30;;;;;;;2.23;2.03;;;22.70;99.90;;;22.79;55.79;99848.59;4935373;28;97206;-49
2021/08/06 05:24:56;;;;;;;2.73;2.40;;;22.70;99.90;;;22.73;56.25;99862.66;4931424;28;99343;-51
2021/08/06 05:27:22;;;;;;;1.50;1.40;;;22.60;99.90;;;22.73;55.93;99859.13;4933764;28;99555;-49
2021/08/06 05:29:48;;;;;;;1.90;1.70;;;22.60;99.90;;;22.70;56.07;99859.41;4939186;28;106005;-52
2021/08/06 05:32:14;;;;;;;1.60;1.50;;;22.60;99.90;;;22.68;55.98;99862.25;4932154;28;100181;-50
2021/08/06 05:34:39;;;;;;;2.07;1.70;;;22.60;99.90;;;22.68;56.17;99859.56;4932489;28;103345;-46
2021/08/06 05:37:05;;;;;;;1.50;1.40;;;22.50;99.90;;;22.67;56.15;99860.56;4943543;28;98353;-48
2021/08/06 05:39:31;;;;;;;1.80;1.70;;;22.50;99.90;;;22.67;55.99;99860.56;4949287;28;105607;-49
2021/08/06 05:41:57;;;;;;;1.80;1.70;;;22.50;99.90;;;22.68;55.94;99867.63;4944793;28;97445;-54
2021/08/06 05:44:22;;;;;;;1.90;1.70;;;22.50;99.90;;;22.65;56.14;99867.94;4931612;28;97906;-51
2021/08/06 05:46:48;;;;;;;2.00;1.70;;;22.50;99.90;;;22.64;56.04;99882.38;4940523;28;98195;-50
2021/08/06 05:49:14;;;;;;;2.03;1.67;;;22.50;99.90;;;22.62;56.24;99873.63;4933995;28;97738;-51
2021/08/06 05:51:40;;;;;;;1.60;1.50;;;22.40;99.90;;;22.62;56.14;99883.53;4944347;28;98442;-48
2021/08/06 05:54:06;;;;;;;2.07;1.80;;;22.40;99.90;;;22.61;56.30;99876.44;4928913;28;106866;-51
2021/08/06 05:56:32;;;;;;;3.47;2.23;;;22.40;99.90;;;22.54;58.44;99876.19;4944537;28;97183;-52
2021/08/06 05:58:58;;;;;;;1.50;1.40;;;22.30;99.90;;;22.49;57.41;99879.34;4931462;28;101104;-52
2021/08/06 06:01:24;;;;;;;3.50;2.43;;;22.30;99.90;;;22.45;57.04;99887.84;4926335;28;97979;-48
2021/08/06 06:03:50;;;;;;;5.23;2.30;;;22.20;99.90;;;22.42;57.73;99883.63;4945156;28;98671;-46
2021/08/06 06:06:16;;;;;;;1.50;1.40;;;22.10;99.90;;;22.42;56.84;99893.50;4932416;28;106521;-53
2021/08/06 06:08:42;;;;;;;2.57;2.00;;;22.20;99.90;;;22.43;57.11;99896.06;4930084;28;98268;-51
2021/08/06 06:11:08;;;;;;;4.27;2.47;;;22.30;99.90;;;22.47;57.17;99896.59;4944456;28;99500;-48
2021/08/06 06:13:35;;;;;;;1.50;1.40;;;22.30;99.90;;;22.47;56.69;99893.94;4935896;28;98448;-51
2021/08/06 06:16:01;;;;;;;1.47;1.37;;;22.30;99.90;;;22.51;56.55;99888.09;4944126;28;98983;-49
2021/08/06 06:18:27;;;;;;;2.23;1.63;;;22.40;99.90;;;22.54;56.45;99895.00;4937227;28;99507;-49
2021/08/06 06:20:53;;;;;;;2.00;1.77;;;22.40;99.90;;;22.52;56.85;99894.31;4939958;28;97464;-52
2021/08/06 06:23:19;;;;;;;2.87;2.60;;;22.40;99.90;;;22.49;57.25;99894.63;4944326;28;103807;-52
2021/08/06 06:25:45;;;;;;;1.47;1.30;;;22.30;99.90;;;22.47;57.11;99893.94;4924187;28;98445;-50
2021/08/06 06:28:11;;;;;;;1.43;1.33;;;22.20;99.90;;;22.47;56.99;99891.25;4941604;28;99690;-48
2021/08/06 06:30:37;;;;;;;2.70;1.90;;;22.20;99.90;;;22.44;57.22;99894.22;4927174;28;97871;-52
2021/08/06 06:33:04;;;;;;;1.43;1.30;;;22.20;99.90;;;22.42;57.15;99888.13;4926894;28;100291;-49
2021/08/06 06:35:31;;;;;;;1.50;1.40;;;22.20;99.90;;;22.44;57.02;99891.53;4930427;28;97911;-50
2021/08/06 06:37:57;;;;;;;3.30;2.83;;;22.20;99.90;;;22.47;58.04;99899.31;4928483;28;98340;-51
2021/08/06 06:40:26;;;;;;;3.43;3.13;;;22.30;99.90;;;22.45;59.17;99903.97;4947062;28;98377;-53
2021/08/06 06:42:52;;;;;;;1.67;1.57;;;22.20;99.90;;;22.47;56.99;99907.34;4937547;28;99374;-49
2021/08/06 06:45:19;;;;;;;1.60;1.50;;;22.30;99.90;;;22.48;56.94;99903.69;4948986;28;103350;-51
2021/08/06 06:47:49;;;;;;;4.40;2.33;;;22.30;99.90;;;22.51;57.45;99908.75;4941197;28;98456;-52
2021/08/06 06:50:19;;;;;;;1.50;1.33;;;22.30;99.90;;;22.51;56.83;99909.59;4944950;28;100834;-48
2021/08/06 06:52:47;;;;;;;3.40;2.83;;;22.40;99.90;;;22.55;57.86;99902.06;4939514;28;98617;-54
2021/08/06 06:55:14;;;;;;;2.33;1.73;;;22.40;99.90;;;22.55;57.50;99904.75;4943736;28;98246;-49
2021/08/06 06:57:58;;;;;;;3.63;2.40;;;22.40;99.90;;;22.57;57.95;99908.16;4932570;28;98147;-50
2021/08/06 07:00:28;;;;;;;1.70;1.60;;;22.40;99.90;;;22.56;56.77;99906.44;4943412;28;99323;-48
2021/08/06 07:02:54;;;;;;;2.47;1.53;;;22.40;99.90;;;22.55;56.67;99912.81;4927055;28;98725;-49
2021/08/06 07:05:20;;;;;;;3.90;2.13;;;22.40;99.90;;;22.57;57.60;99916.22;4930670;28;99616;-47
2021/08/06 07:07:47;;;;;;;1.50;1.40;;;22.50;99.90;;;22.57;56.65;99913.53;4927257;28;98883;-53
2021/08/06 07:10:14;;;;;;;3.03;2.20;;;22.50;99.90;;;22.62;57.87;99910.41;4926405;28;97283;-55
2021/08/06 07:12:43;;;;;;;2.20;2.00;;;22.50;99.90;;;22.60;56.79;99917.75;4940329;28;97172;-54
2021/08/06 07:15:11;;;;;;;1.80;1.70;;;22.50;99.90;;;22.59;56.60;99919.59;4925561;28;99295;-51
2021/08/06 07:17:39;;;;;;;1.33;1.23;;;22.50;99.90;;;22.64;56.42;99927.22;4937177;28;97272;-54
2021/08/06 07:20:09;;;;;;;1.43;1.33;;;22.50;99.90;;;22.64;56.44;99925.38;4924633;28;96855;-51
2021/08/06 07:22:35;;;;;;;2.50;2.20;;;22.60;99.90;;;22.64;57.25;99920.00;4938126;28;100492;-48
2021/08/06 07:25:02;;;;;;;1.60;1.50;;;22.60;99.90;;;22.65;56.59;99921.69;4928463;28;99408;-53
2021/08/06 07:27:28;;;;;;;4.23;2.37;;;22.60;99.90;;;22.67;58.76;99919.69;4942336;28;98702;-51
2021/08/06 07:29:54;;;;;;;1.47;1.37;;;22.60;99.90;;;22.67;56.50;99930.44;4936863;28;99217;-48
2021/08/06 07:32:19;;;;;;;5.00;3.30;;;22.60;99.90;;;22.65;59.94;99927.06;4932702;28;97597;-55
2021/08/06 07:34:45;;;;;;;4.33;3.40;;;22.50;99.90;;;22.62;57.91;99924.69;4924747;28;98039;-49
2021/08/06 07:37:11;;;;;;;2.33;1.60;;;22.50;99.90;;;22.58;56.74;99925.97;4946498;28;97863;-51
2021/08/06 07:39:38;;;;;;;1.53;1.43;;;22.40;99.90;;;22.60;56.59;99929.34;4943089;28;98030;-48
2021/08/06 07:42:05;;;;;;;1.53;1.43;;;22.50;99.90;;;22.62;56.91;99931.91;4913726;28;100189;-52
2021/08/06 07:44:31;;;;;;;2.67;1.80;;;22.50;99.90;;;22.61;57.27;99928.38;4947450;28;98101;-51
2021/08/06 07:46:57;;;;;;;3.27;2.23;;;22.50;99.90;;;22.62;56.80;99927.38;4942360;28;97355;-47
2021/08/06 07:49:23;;;;;;;5.17;3.10;;;22.50;99.90;;;22.60;58.07;99926.66;4948534;28;97833;-50
2021/08/06 07:51:49;;;;;;;1.40;1.30;;;22.50;99.90;;;22.58;56.87;99936.72;4939603;28;99109;-47
2021/08/06 07:54:15;;;;;;;1.70;1.60;;;22.50;99.90;;;22.59;56.86;99938.41;4918146;28;98359;-52
2021/08/06 07:56:41;;;;;;;1.30;1.20;;;22.50;99.90;;;22.56;56.67;99933.31;4926537;28;98594;-50
2021/08/06 07:59:06;;;;;;;3.47;1.90;;;22.50;99.90;;;22.64;57.37;99925.38;4947953;28;98744;-45
2021/08/06 08:01:32;;;;;;;4.43;2.27;;;22.60;99.90;;;22.67;60.11;99933.13;4926315;28;98663;-53
2021/08/06 08:03:58;;;;;;;1.30;1.20;;;22.60;99.90;;;22.68;56.70;99932.13;4940798;28;99643;-49
2021/08/06 08:06:24;;;;;;;1.53;1.43;;;22.60;99.90;;;22.64;56.67;99930.75;4950954;28;97817;-52
2021/08/06 08:08:50;;;;;;;2.90;1.50;;;22.60;99.90;;;22.67;56.75;99935.81;4938138;28;98794;-47
2021/08/06 08:11:16;;;;;;;1.50;1.40;;;22.60;99.90;;;22.68;56.79;99932.13;4930720;28;98192;-54
2021/08/06 08:13:41;;;;;;;1.27;1.17;;;22.60;99.90;;;22.74;56.91;99942.31;4941215;28;98313;-54
2021/08/06 08:16:08;;;;;;;2.23;1.87;;;22.70;99.90;;;22.76;57.29;99937.63;4934711;28;100000;-50
2021/08/06 08:18:33;;;;;;;1.63;1.53;;;22.70;99.90;;;22.79;58.42;99941.84;4941763;28;99289;-52
2021/08/06 08:20:59;;;;;;;2.83;1.90;;;22.70;99.90;;;22.79;62.42;99934.63;4930985;28;101717;-51
2021/08/06 08:23:25;;;;;;;1.70;1.23;;;22.70;99.90;;;22.78;56.70;99937.47;4925869;28;98456;-53
2021/08/06 08:25:54;;;;;;;1.30;1.20;;;22.60;99.90;;;22.79;58.13;99934.63;4927624;28;97782;-50
2021/08/06 08:28:25;;;;;;;1.53;1.43;;;22.70;99.90;;;22.80;56.59;99941.69;4945856;28;101109;-47
2021/08/06 08:30:51;;;;;;;1.67;1.57;;;22.70;99.90;;;22.78;61.33;99942.84;4928767;28;99155;-47
2021/08/06 08:33:19;;;;;;;3.27;1.43;;;22.70;99.90;;;22.73;57.77;99935.25;4951352;28;99075;-51
2021/08/06 08:35:46;;;;;;;4.23;1.60;;;22.60;99.90;;;22.67;61.86;99930.44;4940666;28;99090;-49
2021/08/06 08:38:12;;;;;;;1.40;1.30;;;22.50;99.90;;;22.64;56.97;99925.38;4929224;28;98050;-52
2021/08/06 08:40:39;;;;;;;3.07;1.87;;;22.50;99.90;;;22.64;61.21;99935.28;4943382;28;98830;-52
2021/08/06 08:43:07;;;;;;;1.40;1.30;;;22.50;99.90;;;22.66;56.84;99934.13;4934464;28;99168;-47
2021/08/06 08:45:40;;;;;;;1.90;1.43;;;22.60;99.90;;;22.69;62.68;99954.47;4946810;28;97573;-49
2021/08/06 08:48:09;;;;;;;1.83;1.30;;;22.60;99.90;;;22.63;60.84;99972.06;4929814;28;98756;-48
2021/08/06 08:50:37;;;;;;;1.67;0.80;;;22.50;99.90;;;22.38;59.21;99992.38;4946237;28;100189;-51
2021/08/06 08:53:04;;;;;;;2.03;1.00;;;22.30;99.90;;;22.35;59.18;99998.03;4948865;28;97267;-53
2021/08/06 08:55:30;;;;;;;2.40;0.90;;;22.20;99.90;;;22.24;59.23;99999.06;4919377;28;98119;-45
2021/08/06 08:57:56;;;;;;;1.97;1.20;;;22.20;99.90;;;22.18;58.95;99996.97;4945772;28;99625;-46
2021/08/06 09:00:22;;;;;;;3.80;1.30;;;22.10;99.90;;;22.23;59.12;99997.34;4946552;28;97315;-52
2021/08/06 09:02:48;;;;;;;2.00;1.40;;;22.10;99.90;;;22.20;58.77;100008.41;4921899;28;99569;-48
2021/08/06 09:05:19;;;;;;;3.43;1.50;;;22.00;99.90;;;22.12;59.23;99994.84;4944628;28;97612;-49
2021/08/06 09:07:45;;;;;;;1.47;1.37;;;21.90;99.90;;;22.13;58.85;100001.06;4942581;28;98409;-49
2021/08/06 09:10:19;;;;;;;2.03;1.50;;;21.90;99.90;;;22.13;59.54;99985.81;4924151;28;97726;-50
2021/08/06 09:12:50;;;;;;;2.07;1.40;;;21.90;99.90;;;22.12;59.08;99981.41;4926802;28;99684;-48
2021/08/06 09:15:19;;;;;;;2.63;1.67;;;21.90;99.90;;;22.09;61.33;99984.38;4948471;28;99813;-45
2021/08/06 09:17:45;;;;;;;3.93;1.57;;;21.90;99.90;;;22.11;59.70;99986.91;4930324;28;97305;-45
2021/08/06 09:20:13;;;;;;;1.70;1.40;;;21.90;99.90;;;22.08;59.42;99981.84;4950192;28;99340;-45
2021/08/06 09:22:41;;;;;;;1.70;1.53;;;21.90;99.90;;;22.09;61.63;99984.38;4909304;28;101375;-44
2021/08/06 09:25:16;;;;;;;2.20;1.40;;;21.90;99.90;;;22.11;60.70;99981.56;4945791;28;97206;-45
2021/08/06 09:27:48;;;;;;;4.63;2.10;;;21.90;99.90;;;22.11;59.51;99982.41;4929701;28;97294;-46
2021/08/06 09:30:38;;;;;;;3.43;1.77;;;21.90;99.90;;;22.10;59.44;99991.44;4931827;28;98434;-47
2021/08/06 09:33:08;;;;;;;2.47;1.47;;;21.90;99.90;;;22.11;58.87;99985.09;4944578;28;103079;-47
2021/08/06 09:35:35;;;;;;;4.60;2.03;;;21.90;99.90;;;22.13;60.40;99980.44;4926028;28;97522;-48
2021/08/06 09:38:02;;;;;;;3.13;1.67;;;21.90;99.90;;;22.13;59.78;99985.81;4935840;28;97664;-45
2021/08/06 09:40:39;;;;;;;3.00;1.97;;;21.90;99.90;;;21.93;63.40;99989.47;4946412;28;97816;-44
2021/08/06 09:43:15;;;;;;;4.53;2.63;;;21.80;99.90;;;21.57;64.90;99989.22;4930690;28;100064;-41
2021/08/06 09:45:43;;;;;;;4.97;2.40;;;21.30;99.90;;;21.32;66.51;99979.03;4925328;28;98046;-41
2021/08/06 09:48:09;;;;;;;3.60;2.17;;;20.90;99.90;;;20.98;66.75;99981.22;4929765;28;99102;-42
2021/08/06 09:50:38;;;;;;;5.90;2.10;;;20.70;99.90;;;21.20;64.72;99974.75;4938672;28;97550;-48
2021/08/06 09:53:06;;;;;;;3.70;2.37;;;20.80;99.90;;;21.30;66.30;99975.66;4944273;28;102102;-43
2021/08/06 09:55:38;;;;;;;2.97;2.30;;;21.00;99.90;;;21.45;63.27;99974.25;4939733;28;97466;-44
2021/08/06 09:58:11;;;;;;;2.80;2.27;;;21.10;99.90;;;21.62;62.75;99976.22;4938585;28;96926;-44
2021/08/06 10:00:47;;;;;;;4.67;2.00;;;21.30;99.90;;;21.76;64.26;99974.09;4935747;28;98055;-47
2021/08/06 10:03:35;;;;;;;3.07;2.00;;;21.50;99.90;;;21.88;63.32;99959.53;4946521;28;96756;-47
2021/08/06 10:06:21;;;;;;;3.23;2.03;;;21.70;99.90;;;21.98;61.98;99965.72;4927011;28;99616;-47
2021/08/06 10:08:47;;;;;;;2.80;2.20;;;21.80;99.90;;;22.04;60.95;99959.78;4947683;28;98490;-48
2021/08/06 10:11:15;;;;;;;5.20;2.20;;;21.90;99.90;;;22.07;62.05;99964.88;4937948;28;99212;-45
2021/08/06 10:13:43;;;;;;;3.27;1.93;;;21.90;99.90;;;22.13;60.17;99958.97;4940937;28;98837;-44
2021/08/06 10:16:11;;;;;;;3.87;1.97;;;22.00;99.90;;;22.19;60.67;99961.03;4929891;28;97881;-45
2021/08/06 10:18:42;;;;;;;2.93;1.83;;;22.10;99.90;;;22.26;60.22;99969.34;4942221;28;97884;-43
2021/08/06 10:21:09;;;;;;;2.97;2.00;;;22.10;99.90;;;22.27;60.59;99966.53;4929253;28;98738;-44